Time;durP1;ratioP1;P1;durP2;ratioP2;P2;SDS_P1;SDS_P2;PMS_P1;PMS_P2;Temp;Humidity;BMP_temperature;BMP_pressure;BME280_temperature;BME280_humidity;BME280_pressure;Samples;Min_cycle;Max_cycle;Signal;HPM_P1;HPM_P2
2021/05/20 00:01:46;;;;;;;;;;;;;;;9.09;100.00;100881.50;5064718;28;20430;-73
2021/05/20 00:04:12;;;;;;;;;;;;;;;9.07;100.00;100879.88;5074380;28;19929;-73
2021/05/20 00:06:38;;;;;;;;;;;;;;;9.04;100.00;100881.81;5073599;28;20395;-73
2021/05/20 00:09:04;;;;;;;;;;;;;;;9.04;100.00;100889.06;5074446;28;20433;-73
2021/05/20 00:11:30;;;;;;;;;;;;;;;9.04;100.00;100875.53;5056617;28;19925;-73
2021/05/20 00:13:56;;;;;;;;;;;;;;;9.02;100.00;100880.22;5056256;28;19928;-73
2021/05/20 00:16:23;;;;;;;;;;;;;;;9.01;100.00;100890.16;5074367;28;19974;-73
2021/05/20 00:18:49;;;;;;;;;;;;;;;9.02;100.00;100885.63;5073966;28;19925;-73
2021/05/20 00:21:15;;;;;;;;;;;;;;;9.03;100.00;100876.50;5074152;28;20257;-74
2021/05/20 00:23:41;;;;;;;;;;;;;;;9.03;100.00;100887.34;5074145;28;19978;-73
2021/05/20 00:26:10;;;;;;;;;;;;;;;9.08;100.00;100884.31;5070743;28;20066;-74
2021/05/20 00:28:36;;;;;;;;;;;;;;;9.09;100.00;100876.06;5074151;28;19924;-73
2021/05/20 00:31:01;;;;;;;;;;;;;;;9.12;100.00;100878.53;5056123;28;20403;-73
2021/05/20 00:33:28;;;;;;;;;;;;;;;9.16;100.00;100887.31;5073806;28;19924;-73
2021/05/20 00:35:54;;;;;;;;;;;;;;;9.18;100.00;100896.22;5073748;28;20364;-73
2021/05/20 00:38:20;;;;;;;;;;;;;;;9.20;100.00;100891.53;5056024;28;20022;-73
2021/05/20 00:40:45;;;;;;;;;;;;;;;9.21;100.00;100894.13;5073472;28;19928;-73
2021/05/20 00:43:11;;;;;;;;;;;;;;;9.25;100.00;100893.94;5073544;28;19924;-73
2021/05/20 00:45:37;;;;;;;;;;;;;;;9.29;100.00;100895.44;5073904;28;19924;-73
2021/05/20 00:48:03;;;;;;;;;;;;;;;9.31;100.00;100899.75;5073387;28;19924;-73
2021/05/20 00:50:30;;;;;;;;;;;;;;;9.32;100.00;100897.91;5073692;28;19970;-73
2021/05/20 00:52:56;;;;;;;;;;;;;;;9.35;100.00;100900.38;5073710;28;19928;-73
2021/05/20 00:55:23;;;;;;;;;;;;;;;9.35;100.00;100901.25;5073837;28;20290;-73
2021/05/20 00:57:51;;;;;;;;;;;;;;;9.34;100.00;100912.19;5073313;28;19969;-73
2021/05/20 01:00:18;;;;;;;;;;;;;;;9.31;100.00;100912.41;5072975;28;19932;-73
2021/05/20 01:02:44;;;;;;;;;;;;;;;9.30;100.00;100907.97;5054608;28;19956;-73
2021/05/20 01:05:11;;;;;;;;;;;;;;;9.28;100.00;100910.81;5073098;28;19924;-74
2021/05/20 01:07:38;;;;;;;;;;;;;;;9.29;100.00;100917.97;5073203;28;19924;-73
2021/05/20 01:10:04;;;;;;;;;;;;;;;9.28;100.00;100913.50;5073390;28;19924;-74
2021/05/20 01:12:30;;;;;;;;;;;;;;;9.27;100.00;100919.91;5072163;28;19932;-74
2021/05/20 01:14:56;;;;;;;;;;;;;;;9.27;100.00;100911.78;5073174;28;19928;-73
2021/05/20 01:17:22;;;;;;;;;;;;;;;9.27;100.00;100919.91;5072769;28;19928;-73
2021/05/20 01:19:48;;;;;;;;;;;;;;;9.26;100.00;100925.44;5072709;28;20015;-73
2021/05/20 01:22:15;;;;;;;;;;;;;;;9.24;100.00;100921.97;5073352;28;19955;-74
2021/05/20 01:24:41;;;;;;;;;;;;;;;9.23;100.00;100925.66;5072637;28;19931;-73
2021/05/20 01:27:07;;;;;;;;;;;;;;;9.20;100.00;100922.19;5073167;28;19925;-73
2021/05/20 01:29:33;;;;;;;;;;;;;;;9.18;100.00;100924.16;5072716;28;19932;-73
2021/05/20 01:31:59;;;;;;;;;;;;;;;9.16;100.00;100925.25;5072939;28;19929;-73
2021/05/20 01:34:25;;;;;;;;;;;;;;;9.14;100.00;100928.06;5072282;28;19931;-73
2021/05/20 01:36:51;;;;;;;;;;;;;;;9.15;100.00;100932.50;5054776;28;20351;-73
2021/05/20 01:39:18;;;;;;;;;;;;;;;9.16;100.00;100930.66;5072697;28;20407;-73
2021/05/20 01:41:44;;;;;;;;;;;;;;;9.17;100.00;100938.66;5054400;28;19924;-73
2021/05/20 01:44:10;;;;;;;;;;;;;;;9.17;100.00;100941.38;5072664;28;20406;-73
2021/05/20 01:46:36;;;;;;;;;;;;;;;9.17;100.00;100941.38;5054744;28;19925;-73
2021/05/20 01:49:02;;;;;;;;;;;;;;;9.17;100.00;100941.38;5072197;28;19925;-73
2021/05/20 01:51:28;;;;;;;;;;;;;;;9.16;100.00;100941.50;5072356;28;20000;-73
2021/05/20 01:53:56;;;;;;;;;;;;;;;9.16;100.00;100936.94;5072046;28;19925;-73
2021/05/20 01:56:24;;;;;;;;;;;;;;;9.15;100.00;100940.63;5072504;28;19931;-73
2021/05/20 01:58:50;;;;;;;;;;;;;;;9.13;100.00;100947.13;5072419;28;19929;-73
2021/05/20 02:01:16;;;;;;;;;;;;;;;9.13;100.00;100941.72;5065487;28;19925;-73
2021/05/20 02:03:43;;;;;;;;;;;;;;;9.15;100.00;100928.91;5070456;28;20107;-73
2021/05/20 02:06:09;;;;;;;;;;;;;;;9.16;100.00;100933.38;5071753;28;19928;-72
2021/05/20 02:08:36;;;;;;;;;;;;;;;9.14;100.00;100930.78;5072171;28;19924;-73
2021/05/20 02:11:02;;;;;;;;;;;;;;;9.13;100.00;100934.44;5071825;28;20094;-73
2021/05/20 02:13:29;;;;;;;;;;;;;;;9.12;100.00;100935.41;5071656;28;19925;-73
2021/05/20 02:15:55;;;;;;;;;;;;;;;9.10;100.00;100931.97;5054271;28;19939;-73
2021/05/20 02:18:21;;;;;;;;;;;;;;;9.06;100.00;100935.88;5068468;28;20385;-73
2021/05/20 02:20:47;;;;;;;;;;;;;;;9.05;100.00;100928.72;5071823;28;19925;-73
2021/05/20 02:23:13;;;;;;;;;;;;;;;9.02;100.00;100935.22;5071482;28;20031;-73
2021/05/20 02:25:39;;;;;;;;;;;;;;;9.00;100.00;100936.31;5071643;28;19971;-73
2021/05/20 02:28:05;;;;;;;;;;;;;;;8.97;100.00;100934.69;5071800;28;19928;-73
2021/05/20 02:30:32;;;;;;;;;;;;;;;8.97;100.00;100941.94;5071435;28;20028;-73
2021/05/20 02:32:58;;;;;;;;;;;;;;;8.94;100.00;100944.84;5071633;28;19928;-73
2021/05/20 02:35:24;;;;;;;;;;;;;;;8.94;100.00;100952.97;5071451;28;20392;-73
2021/05/20 02:37:50;;;;;;;;;;;;;;;8.91;100.00;100942.38;5071578;28;19924;-73
2021/05/20 02:40:16;;;;;;;;;;;;;;;8.88;100.00;100949.75;5053678;28;19947;-74
2021/05/20 02:42:42;;;;;;;;;;;;;;;8.87;100.00;100939.00;5071036;28;19928;-73
2021/05/20 02:45:09;;;;;;;;;;;;;;;8.87;100.00;100949.84;5071687;28;20355;-73
2021/05/20 02:47:36;;;;;;;;;;;;;;;8.84;100.00;100953.63;5071202;28;19925;-73
2021/05/20 02:50:02;;;;;;;;;;;;;;;8.84;100.00;100953.63;5071565;28;19977;-73
2021/05/20 02:52:29;;;;;;;;;;;;;;;8.85;100.00;100955.34;5053718;28;20031;-73
2021/05/20 02:54:55;;;;;;;;;;;;;;;8.86;100.00;100962.50;5071249;28;20001;-73
2021/05/20 02:57:20;;;;;;;;;;;;;;;8.88;100.00;100966.00;5071415;28;20360;-73
2021/05/20 02:59:46;;;;;;;;;;;;;;;8.90;100.00;100962.28;5070998;28;19924;-73
2021/05/20 03:02:12;;;;;;;;;;;;;;;8.89;100.00;100961.44;5063033;28;19924;-73
2021/05/20 03:04:39;;;;;;;;;;;;;;;8.91;100.00;100964.88;5052809;28;19925;-73
2021/05/20 03:07:06;;;;;;;;;;;;;;;8.94;100.00;100963.81;5070900;28;19931;-73
2021/05/20 03:09:32;;;;;;;;;;;;;;;8.93;100.00;100964.81;5071281;28;19931;-73
2021/05/20 03:11:58;;;;;;;;;;;;;;;8.92;100.00;100966.63;5053096;28;20011;-73
2021/05/20 03:14:24;;;;;;;;;;;;;;;8.93;100.00;100971.06;5071211;28;19924;-73
2021/05/20 03:16:50;;;;;;;;;;;;;;;8.94;100.00;100969.22;5070827;28;19968;-73
2021/05/20 03:19:16;;;;;;;;;;;;;;;8.94;100.00;100974.63;5071255;28;19986;-73
2021/05/20 03:21:43;;;;;;;;;;;;;;;8.94;100.00;100980.06;5053276;28;19932;-73
2021/05/20 03:24:09;;;;;;;;;;;;;;;8.97;100.00;100991.53;5070843;28;19975;-73
2021/05/20 03:26:35;;;;;;;;;;;;;;;8.99;100.00;100986.91;5071107;28;19929;-73
2021/05/20 03:29:01;;;;;;;;;;;;;;;9.06;100.00;100979.22;5070859;28;19928;-73
2021/05/20 03:31:27;;;;;;;;;;;;;;;9.04;100.00;100983.84;5071086;28;19969;-73
2021/05/20 03:33:53;;;;;;;;;;;;;;;9.05;100.00;100982.88;5070685;28;20414;-73
2021/05/20 03:36:19;;;;;;;;;;;;;;;9.06;100.00;100990.03;5072765;28;19924;-73
2021/05/20 03:38:45;;;;;;;;;;;;;;;9.10;100.00;100993.38;5074945;28;19928;-73
2021/05/20 03:41:12;;;;;;;;;;;;;;;9.10;100.00;100990.66;5074786;28;19924;-73
2021/05/20 03:43:38;;;;;;;;;;;;;;;9.06;100.00;100990.03;5074822;28;19924;-74
2021/05/20 03:46:04;;;;;;;;;;;;;;;9.09;100.00;100991.66;5074834;28;19948;-73
2021/05/20 03:48:30;;;;;;;;;;;;;;;9.07;100.00;100991.75;5074703;28;19925;-72
2021/05/20 03:50:58;;;;;;;;;;;;;;;9.02;100.00;101002.06;5074828;28;19925;-71
2021/05/20 03:53:25;;;;;;;;;;;;;;;8.92;100.00;101009.09;5074142;28;19966;-71
2021/05/20 03:55:52;;;;;;;;;;;;;;;8.88;100.00;101012.03;5056960;28;19933;-71
2021/05/20 03:58:17;;;;;;;;;;;;;;;8.83;100.00;101008.75;5074327;28;19925;-72
2021/05/20 04:00:43;;;;;;;;;;;;;;;8.82;100.00;101009.72;5072045;28;19955;-72
2021/05/20 04:03:09;;;;;;;;;;;;;;;8.83;100.00;101014.19;5061971;28;19932;-72
2021/05/20 04:05:35;;;;;;;;;;;;;;;8.85;100.00;101014.91;5066620;28;19947;-72
2021/05/20 04:08:00;;;;;;;;;;;;;;;8.83;100.00;101021.41;5054203;28;19925;-71
2021/05/20 04:10:26;;;;;;;;;;;;;;;8.80;100.00;101032.47;5068198;28;19924;-72
2021/05/20 04:12:53;;;;;;;;;;;;;;;8.78;100.00;101024.44;5074135;28;20031;-72
2021/05/20 04:15:19;;;;;;;;;;;;;;;8.81;100.00;101029.63;5074293;28;19924;-72
2021/05/20 04:17:45;;;;;;;;;;;;;;;8.87;100.00;101034.66;5073839;28;19932;-72
2021/05/20 04:20:12;;;;;;;;;;;;;;;8.91;100.00;101034.41;5044697;28;20027;-72
2021/05/20 04:22:38;;;;;;;;;;;;;;;8.93;100.00;101032.50;5036231;28;19924;-72
2021/05/20 04:25:04;;;;;;;;;;;;;;;8.88;100.00;101030.97;5072204;28;20449;-72
2021/05/20 04:27:30;;;;;;;;;;;;;;;8.87;100.00;101036.47;5074055;28;19971;-72
2021/05/20 04:29:57;;;;;;;;;;;;;;;8.93;100.00;101044.19;5069003;28;19928;-72
2021/05/20 04:32:23;;;;;;;;;;;;;;;9.05;100.00;101042.47;5071945;28;19928;-72
2021/05/20 04:34:49;;;;;;;;;;;;;;;9.11;100.00;101042.00;5058596;28;19935;-72
2021/05/20 04:37:15;;;;;;;;;;;;;;;9.10;100.00;101040.31;5069985;28;19939;-71
2021/05/20 04:39:42;;;;;;;;;;;;;;;9.12;100.00;101045.59;5073365;28;20371;-73
2021/05/20 04:42:08;;;;;;;;;;;;;;;9.17;100.00;101049.72;5071148;28;19971;-72
2021/05/20 04:44:34;;;;;;;;;;;;;;;9.26;100.00;101055.47;5060192;28;19928;-73
2021/05/20 04:47:00;;;;;;;;;;;;;;;9.30;100.00;101054.25;5052281;28;19925;-73
2021/05/20 04:49:26;;;;;;;;;;;;;;;9.35;100.00;101058.41;5063262;28;20384;-73
2021/05/20 04:51:52;;;;;;;;;;;;;;;9.37;100.00;101061.00;5053635;28;19932;-73
2021/05/20 04:54:18;;;;;;;;;;;;;;;9.38;100.00;101057.31;5062239;28;20111;-72
2021/05/20 04:56:43;;;;;;;;;;;;;;;9.43;100.00;101055.13;5072853;28;19947;-72
2021/05/20 04:59:09;;;;;;;;;;;;;;;9.54;100.00;101057.94;5072350;28;19924;-72
2021/05/20 05:01:35;;;;;;;;;;;;;;;9.66;100.00;101052.59;5064416;28;20021;-72
2021/05/20 05:04:02;;;;;;;;;;;;;;;9.71;100.00;101050.44;5072962;28;19929;-72
2021/05/20 05:06:28;;;;;;;;;;;;;;;9.62;100.00;101056.53;5072255;28;20015;-72
2021/05/20 05:08:54;;;;;;;;;;;;;;;9.63;100.00;101059.13;5044122;28;19940;-72
2021/05/20 05:11:19;;;;;;;;;;;;;;;9.69;100.00;101052.41;5035405;28;19925;-72
2021/05/20 05:13:45;;;;;;;;;;;;;;;9.72;100.00;101054.88;5061633;28;19935;-72
2021/05/20 05:16:11;;;;;;;;;;;;;;;9.84;100.00;101059.41;5072742;28;19924;-71
2021/05/20 05:18:38;;;;;;;;;;;;;;;9.82;100.00;101055.97;5064063;28;20343;-72
2021/05/20 05:21:05;;;;;;;;;;;;;;;9.88;100.00;101054.63;5054051;28;19936;-72
2021/05/20 05:23:30;;;;;;;;;;;;;;;10.02;100.00;101053.59;5052253;28;19925;-72
2021/05/20 05:25:56;;;;;;;;;;;;;;;10.13;100.00;101050.97;5053957;28;19932;-72
2021/05/20 05:28:22;;;;;;;;;;;;;;;10.33;100.00;101045.94;5043754;28;20380;-72
2021/05/20 05:30:48;;;;;;;;;;;;;;;10.52;100.00;101057.13;5051549;28;19929;-72
2021/05/20 05:33:14;;;;;;;;;;;;;;;10.62;100.00;101051.00;5066625;28;19935;-73
2021/05/20 05:35:40;;;;;;;;;;;;;;;10.59;100.00;101049.38;5071955;28;20070;-72
2021/05/20 05:38:07;;;;;;;;;;;;;;;10.70;100.00;101045.84;5072122;28;19925;-72
2021/05/20 05:40:33;;;;;;;;;;;;;;;10.91;100.00;101050.63;5055137;28;19936;-73
2021/05/20 05:42:59;;;;;;;;;;;;;;;11.12;100.00;101048.94;5054449;28;19925;-72
2021/05/20 05:45:25;;;;;;;;;;;;;;;11.29;100.00;101039.47;5064001;28;19954;-72
2021/05/20 05:47:50;;;;;;;;;;;;;;;11.53;100.00;101039.38;5054506;28;19928;-72
2021/05/20 05:50:16;;;;;;;;;;;;;;;11.91;100.00;101036.38;5065958;28;19925;-73
2021/05/20 05:52:42;;;;;;;;;;;;;;;12.39;100.00;101027.88;5052450;28;20331;-73
2021/05/20 05:55:09;;;;;;;;;;;;;;;12.59;100.00;101025.31;5054667;28;19947;-72
2021/05/20 05:57:35;;;;;;;;;;;;;;;13.11;100.00;101026.28;5052002;28;20017;-72
2021/05/20 06:00:01;;;;;;;;;;;;;;;13.30;100.00;101022.78;5038710;28;19928;-72
2021/05/20 06:02:27;;;;;;;;;;;;;;;13.36;100.00;101021.41;5065656;28;19932;-72
2021/05/20 06:04:53;;;;;;;;;;;;;;;13.33;100.00;101025.22;5044660;28;20025;-73
2021/05/20 06:07:19;;;;;;;;;;;;;;;13.07;100.00;101028.41;5052018;28;19924;-74
2021/05/20 06:09:45;;;;;;;;;;;;;;;13.51;100.00;101027.38;5071600;28;20260;-73
2021/05/20 06:12:12;;;;;;;;;;;;;;;14.31;100.00;101024.72;5071991;28;19924;-73
2021/05/20 06:14:40;;;;;;;;;;;;;;;14.55;100.00;101025.19;5050090;28;20410;-73
2021/05/20 06:17:06;;;;;;;;;;;;;;;14.56;100.00;101031.50;5071877;28;19950;-73
2021/05/20 06:19:32;;;;;;;;;;;;;;;14.89;100.00;101034.84;5071476;28;19924;-73
2021/05/20 06:21:58;;;;;;;;;;;;;;;14.57;100.00;101044.16;5071046;28;19978;-73
2021/05/20 06:24:23;;;;;;;;;;;;;;;14.12;100.00;101045.53;5054023;28;20380;-73
2021/05/20 06:26:49;;;;;;;;;;;;;;;14.19;100.00;101048.56;5071366;28;19924;-73
2021/05/20 06:29:16;;;;;;;;;;;;;;;14.34;100.00;101051.78;5071774;28;19925;-73
2021/05/20 06:31:42;;;;;;;;;;;;;;;14.63;100.00;101042.72;5060990;28;19969;-73
2021/05/20 06:34:07;;;;;;;;;;;;;;;14.71;100.00;101045.63;5064584;28;19929;-73
2021/05/20 06:36:34;;;;;;;;;;;;;;;14.70;100.00;101044.78;5071344;28;19934;-73
2021/05/20 06:38:59;;;;;;;;;;;;;;;14.84;100.00;101046.19;5053125;28;19925;-73
2021/05/20 06:41:25;;;;;;;;;;;;;;;15.11;100.00;101047.31;5071482;28;20371;-74
2021/05/20 06:43:51;;;;;;;;;;;;;;;14.88;100.00;101044.91;5071450;28;20276;-74
2021/05/20 06:46:18;;;;;;;;;;;;;;;15.01;100.00;101052.81;5071298;28;20398;-73
2021/05/20 06:48:44;;;;;;;;;;;;;;;15.25;100.00;101048.75;5071164;28;19936;-73
2021/05/20 06:51:10;;;;;;;;;;;;;;;14.99;100.00;101048.47;5071272;28;19924;-72
2021/05/20 06:53:37;;;;;;;;;;;;;;;15.49;100.00;101050.97;5070870;28;20398;-72
2021/05/20 06:56:05;;;;;;;;;;;;;;;15.89;100.00;101047.09;5071191;28;19978;-74
2021/05/20 07:01:15;;;;;;;;;;;;;;;16.22;100.00;101047.50;5066321;28;19925;-73
2021/05/20 07:03:43;;;;;;;;;;;;;;;15.63;100.00;101063.28;5067978;28;19931;-73
2021/05/20 07:06:08;;;;;;;;;;;;;;;14.94;100.00;101061.72;5052872;28;19932;-72
2021/05/20 07:08:34;;;;;;;;;;;;;;;14.78;100.00;101063.19;5069998;28;19960;-74
2021/05/20 07:11:00;;;;;;;;;;;;;;;15.02;100.00;101070.09;5067496;28;19930;-73
2021/05/20 07:13:26;;;;;;;;;;;;;;;15.44;100.00;101063.38;5069257;28;19925;-73
2021/05/20 07:15:52;;;;;;;;;;;;;;;15.86;100.00;101063.81;5067196;28;20304;-73
2021/05/20 07:18:18;;;;;;;;;;;;;;;16.75;100.00;101058.63;5070975;28;19928;-73
2021/05/20 07:20:44;;;;;;;;;;;;;;;17.17;100.00;101058.00;5070841;28;19928;-73
2021/05/20 07:23:11;;;;;;;;;;;;;;;17.73;100.00;101046.66;5070963;28;19925;-73
2021/05/20 07:25:36;;;;;;;;;;;;;;;18.38;100.00;101053.47;5070970;28;19931;-73
2021/05/20 07:28:02;;;;;;;;;;;;;;;17.56;100.00;101051.22;5052270;28;19928;-74
2021/05/20 07:30:28;;;;;;;;;;;;;;;17.30;100.00;101056.72;5071050;28;20014;-73
2021/05/20 07:32:54;;;;;;;;;;;;;;;17.59;100.00;101064.59;5070752;28;20423;-74
2021/05/20 07:35:20;;;;;;;;;;;;;;;18.28;98.21;101050.00;5070760;28;19929;-73
2021/05/20 07:37:46;;;;;;;;;;;;;;;18.81;89.33;101051.47;5070831;28;19928;-73
2021/05/20 07:40:13;;;;;;;;;;;;;;;19.36;86.79;101046.31;5069757;28;19924;-73
2021/05/20 07:42:39;;;;;;;;;;;;;;;19.32;74.78;101054.06;5065091;28;20019;-73
2021/05/20 07:45:06;;;;;;;;;;;;;;;18.50;84.07;101043.03;5070138;28;19931;-74
2021/05/20 07:47:31;;;;;;;;;;;;;;;18.89;83.77;101046.03;5033837;28;19925;-72
2021/05/20 07:49:57;;;;;;;;;;;;;;;18.32;82.10;101046.75;5049173;28;19932;-73
2021/05/20 07:52:23;;;;;;;;;;;;;;;19.04;84.35;101054.44;5050031;28;19951;-72
2021/05/20 07:54:51;;;;;;;;;;;;;;;19.67;78.04;101048.28;5062650;28;20343;-72
2021/05/20 07:57:17;;;;;;;;;;;;;;;19.79;73.87;101046.00;5064025;28;19924;-73
2021/05/20 07:59:42;;;;;;;;;;;;;;;18.17;79.34;101049.31;5070234;28;19948;-74
2021/05/20 08:02:13;;;;;;;;;;;;;;;18.03;83.83;101049.94;5061462;28;20415;-73
2021/05/20 08:04:41;;;;;;;;;;;;;;;17.30;88.29;101051.22;5069464;28;20660;-73
2021/05/20 08:07:12;;;;;;;;;;;;;;;16.56;87.78;101049.53;5069180;28;19928;-73
2021/05/20 08:09:38;;;;;;;;;;;;;;;16.50;89.15;101050.19;5069200;28;20023;-72
2021/05/20 08:12:07;;;;;;;;;;;;;;;17.52;86.42;101049.84;5052869;28;19964;-72
2021/05/20 08:14:33;;;;;;;;;;;;;;;18.76;81.11;101053.88;5070025;28;19939;-72
2021/05/20 08:16:59;;;;;;;;;;;;;;;19.58;71.85;101044.72;5070347;28;19924;-73
2021/05/20 08:19:25;;;;;;;;;;;;;;;19.87;68.99;101046.88;5070200;28;19951;-73
2021/05/20 08:21:51;;;;;;;;;;;;;;;19.39;67.23;101056.97;5049902;28;19924;-72
2021/05/20 08:24:16;;;;;;;;;;;;;;;18.60;66.01;101048.34;5074113;28;19931;-73
2021/05/20 08:26:42;;;;;;;;;;;;;;;19.42;66.31;101053.88;5073897;28;19924;-66
2021/05/20 08:29:09;;;;;;;;;;;;;;;20.12;59.43;101049.50;5055844;28;19928;-67
2021/05/20 08:31:35;;;;;;;;;;;;;;;20.74;54.71;101047.81;5055295;28;19925;-67
2021/05/20 08:34:01;;;;;;;;;;;;;;;21.83;57.56;101043.84;5073394;28;19925;-66
2021/05/20 08:36:27;;;;;;;;;;;;;;;21.38;51.68;101041.88;5073310;28;19978;-67
2021/05/20 08:38:53;;;;;;;;;;;;;;;20.02;51.86;101044.22;5073594;28;19931;-67
2021/05/20 08:41:20;;;;;;;;;;;;;;;20.69;55.40;101042.84;5073466;28;19924;-67
2021/05/20 08:43:46;;;;;;;;;;;;;;;21.60;52.82;101043.94;5073374;28;20372;-66
2021/05/20 08:46:12;;;;;;;;;;;;;;;20.77;50.97;101049.34;5073362;28;20015;-66
2021/05/20 08:48:38;;;;;;;;;;;;;;;18.85;54.37;101058.38;5073470;28;19932;-66
2021/05/20 08:51:04;;;;;;;;;;;;;;;18.70;59.19;101049.06;5073627;28;19928;-67
2021/05/20 08:53:30;;;;;;;;;;;;;;;18.83;56.08;101043.06;5073028;28;19932;-66
2021/05/20 08:55:56;;;;;;;;;;;;;;;19.73;54.97;101047.59;5073324;28;20308;-66
2021/05/20 08:58:25;;;;;;;;;;;;;;;20.27;53.74;101041.38;5073142;28;19970;-66
2021/05/20 09:00:51;;;;;;;;;;;;;;;21.08;49.90;101049.25;5054556;28;20759;-66
2021/05/20 09:03:19;;;;;;;;;;;;;;;21.00;48.03;101044.66;5054998;28;19932;-66
2021/05/20 09:05:45;;;;;;;;;;;;;;;18.54;50.18;101047.16;5073401;28;19924;-66
2021/05/20 09:08:12;;;;;;;;;;;;;;;18.43;55.04;101053.81;5073175;28;20323;-67
2021/05/20 09:10:38;;;;;;;;;;;;;;;18.57;59.28;101055.91;5072842;28;19924;-66
2021/05/20 09:13:05;;;;;;;;;;;;;;;19.87;55.25;101048.81;5073045;28;19928;-66
2021/05/20 09:15:32;;;;;;;;;;;;;;;21.02;45.87;101041.72;5072525;28;19924;-66
2021/05/20 09:18:02;;;;;;;;;;;;;;;20.74;48.94;101051.41;5073338;28;19947;-66
2021/05/20 09:20:29;;;;;;;;;;;;;;;19.06;53.77;101051.50;5073236;28;19960;-66
2021/05/20 09:23:02;;;;;;;;;;;;;;;18.48;61.13;101062.44;5072700;28;19924;-66
2021/05/20 09:25:30;;;;;;;;;;;;;;;17.32;65.43;101066.50;5054992;28;20384;-67
2021/05/20 09:27:56;;;;;;;;;;;;;;;17.67;65.26;101053.66;5072613;28;20280;-67
2021/05/20 09:30:22;;;;;;;;;;;;;;;18.32;62.47;101056.88;5073158;28;19947;-67
2021/05/20 09:32:50;;;;;;;;;;;;;;;19.49;60.29;101054.88;5053770;28;19978;-66
2021/05/20 09:35:17;;;;;;;;;;;;;;;20.24;55.46;101056.38;5071674;28;19925;-67
2021/05/20 09:37:46;;;;;;;;;;;;;;;19.59;53.11;101065.72;5072601;28;19931;-66
2021/05/20 09:40:12;;;;;;;;;;;;;;;19.79;51.74;101065.28;5054450;28;19931;-67
2021/05/20 09:42:38;;;;;;;;;;;;;;;20.50;52.72;101051.56;5072385;28;19924;-67
2021/05/20 09:45:07;;;;;;;;;;;;;;;20.98;47.88;101056.91;5072562;28;20415;-66
2021/05/20 09:47:33;;;;;;;;;;;;;;;21.13;45.55;101046.78;5072243;28;19935;-66
2021/05/20 09:50:00;;;;;;;;;;;;;;;19.14;49.06;101056.16;5072831;28;19947;-65
2021/05/20 09:52:26;;;;;;;;;;;;;;;20.07;48.84;101041.81;5071801;28;19924;-67
2021/05/20 09:54:53;;;;;;;;;;;;;;;20.54;48.11;101056.53;5071712;28;19925;-66
2021/05/20 09:57:26;;;;;;;;;;;;;;;21.13;46.45;101045.94;5072197;28;20283;-66
2021/05/20 09:59:59;;;;;;;;;;;;;;;21.37;45.73;101053.13;5072154;28;20396;-65
2021/05/20 10:02:25;;;;;;;;;;;;;;;22.09;44.93;101048.88;5071150;28;19932;-65
2021/05/20 10:04:53;;;;;;;;;;;;;;;21.29;40.12;101053.22;5071385;28;19924;-66
2021/05/20 10:07:26;;;;;;;;;;;;;;;21.12;42.42;101046.97;5071897;28;20383;-66
2021/05/20 10:09:54;;;;;;;;;;;;;;;20.61;41.29;101050.28;5071901;28;19928;-66
2021/05/20 10:12:20;;;;;;;;;;;;;;;21.44;43.15;101059.59;5069008;28;19924;-66
2021/05/20 10:14:48;;;;;;;;;;;;;;;21.55;40.67;101048.13;5071614;28;19936;-67
2021/05/20 10:17:16;;;;;;;;;;;;;;;21.40;43.21;101056.34;5072025;28;19925;-68
2021/05/20 10:19:42;;;;;;;;;;;;;;;21.31;41.87;101057.50;5072122;28;19932;-67
2021/05/20 10:22:09;;;;;;;;;;;;;;;21.44;43.45;101059.59;5071520;28;19978;-75
2021/05/20 10:24:34;;;;;;;;;;;;;;;21.38;42.41;101050.16;5071702;28;20379;-72
2021/05/20 10:27:01;;;;;;;;;;;;;;;20.94;40.27;101050.06;5071956;28;19925;-74
2021/05/20 10:29:27;;;;;;;;;;;;;;;20.99;44.95;101053.13;5071722;28;20299;-72
2021/05/20 10:31:53;;;;;;;;;;;;;;;20.16;47.91;101053.66;5062496;28;19936;-74
2021/05/20 10:34:19;;;;;;;;;;;;;;;19.95;46.44;101059.78;5071144;28;20399;-73
2021/05/20 10:36:58;;;;;;;;;;;;;;;20.30;44.37;101049.25;5071590;28;20119;-72
2021/05/20 10:39:24;;;;;;;;;;;;;;;21.03;46.59;101057.22;5053660;28;19928;-75
2021/05/20 10:41:50;;;;;;;;;;;;;;;20.49;46.29;101056.22;5053584;28;19928;-75
2021/05/20 10:44:19;;;;;;;;;;;;;;;19.92;46.29;101056.50;5036810;28;20070;-74
2021/05/20 10:47:01;;;;;;;;;;;;;;;19.03;51.73;101049.09;5052394;28;20039;-74
2021/05/20 10:49:42;;;;;;;;;;;;;;;19.95;46.99;101047.88;5071390;28;20031;-74
2021/05/20 10:52:33;;;;;;;;;;;;;;;20.72;47.10;101039.72;5070430;28;19935;-74
2021/05/20 10:55:00;;;;;;;;;;;;;;;19.84;46.29;101043.63;5071113;28;19925;-74
2021/05/20 10:57:41;;;;;;;;;;;;;;;20.47;47.56;101039.00;5053365;28;19970;-74
2021/05/20 11:00:28;;;;;;;;;;;;;;;20.82;45.75;101036.72;5071092;28;19924;-74
2021/05/20 11:02:54;;;;;;;;;;;;;;;20.70;46.28;101036.28;5070480;28;19933;-74
2021/05/20 11:05:54;;;;;;;;;;;;;;;20.85;44.24;101025.28;5053260;28;19928;-74
2021/05/20 11:08:39;;;;;;;;;;;;;;;21.29;39.62;101028.38;5070856;28;20411;-74
2021/05/20 11:11:06;;;;;;;;;;;;;;;20.57;40.91;101025.81;5071066;28;20453;-74
2021/05/20 11:13:35;;;;;;;;;;;;;;;20.59;42.92;101028.41;5070780;28;20032;-74
2021/05/20 11:16:12;;;;;;;;;;;;;;;20.72;41.47;101023.19;5054835;28;20031;-67
2021/05/20 11:18:38;;;;;;;;;;;;;;;21.62;42.74;101033.53;5051621;28;19924;-68
2021/05/20 11:21:03;;;;;;;;;;;;;;;21.19;43.28;101026.72;5058052;28;19925;-68
2021/05/20 11:23:30;;;;;;;;;;;;;;;21.40;42.25;101023.22;5070783;28;19926;-69
2021/05/20 11:26:03;;;;;;;;;;;;;;;21.08;42.07;101016.13;5055483;28;19979;-68
2021/05/20 11:28:29;;;;;;;;;;;;;;;21.41;43.05;101018.56;5050569;28;20384;-74
2021/05/20 11:30:56;;;;;;;;;;;;;;;21.53;42.70;101014.31;5053869;28;19928;-74
2021/05/20 11:33:23;;;;;;;;;;;;;;;20.75;42.52;101021.91;5046520;28;19933;-67
2021/05/20 11:35:57;;;;;;;;;;;;;;;20.34;40.92;101014.78;5070428;28;19924;-67
2021/05/20 11:38:25;;;;;;;;;;;;;;;20.46;42.22;101006.97;5052171;28;20269;-68
2021/05/20 11:40:50;;;;;;;;;;;;;;;21.00;41.05;101021.72;5050310;28;19928;-68
2021/05/20 11:43:25;;;;;;;;;;;;;;;21.11;43.12;101024.06;5067265;28;20350;-68
2021/05/20 11:45:51;;;;;;;;;;;;;;;21.12;42.32;101016.63;5070931;28;19929;-67
2021/05/20 11:48:17;;;;;;;;;;;;;;;20.57;41.24;101008.44;5068874;28;19931;-66
2021/05/20 11:50:50;;;;;;;;;;;;;;;20.50;44.88;101010.22;5070857;28;20410;-66
2021/05/20 11:53:15;;;;;;;;;;;;;;;21.30;42.03;101007.97;5051577;28;19925;-65
2021/05/20 11:55:42;;;;;;;;;;;;;;;21.39;41.37;101006.84;5032994;28;19931;-65
2021/05/20 11:58:08;;;;;;;;;;;;;;;21.97;40.10;101018.09;5070309;28;19925;-65
2021/05/20 12:00:34;;;;;;;;;;;;;;;21.33;39.67;101008.47;5073211;28;19936;-65
2021/05/20 12:03:00;;;;;;;;;;;;;;;21.49;40.07;101007.44;5070910;28;19935;-65
2021/05/20 12:05:26;;;;;;;;;;;;;;;22.26;39.58;101012.69;5067362;28;19988;-67
2021/05/20 12:07:52;;;;;;;;;;;;;;;21.13;39.99;101012.81;5054191;28;19932;-65
2021/05/20 12:10:19;;;;;;;;;;;;;;;21.22;40.80;101012.53;5062633;28;19932;-65
2021/05/20 12:12:48;;;;;;;;;;;;;;;21.19;40.36;101007.41;5073767;28;20505;-66
2021/05/20 12:15:15;;;;;;;;;;;;;;;21.48;42.55;101015.91;5069973;28;20387;-66
2021/05/20 12:17:41;;;;;;;;;;;;;;;19.97;42.04;101001.75;5060499;28;19925;-66
2021/05/20 12:20:07;;;;;;;;;;;;;;;18.78;44.09;101016.06;5073674;28;19924;-65
2021/05/20 12:22:33;;;;;;;;;;;;;;;19.66;44.97;101016.31;5072404;28;19936;-65
2021/05/20 12:25:02;;;;;;;;;;;;;;;20.55;43.31;101008.63;5064597;28;20111;-66
2021/05/20 12:27:28;;;;;;;;;;;;;;;21.17;41.55;101012.25;5054062;28;19924;-66
2021/05/20 12:29:55;;;;;;;;;;;;;;;21.57;42.21;101003.75;5066590;28;19928;-66
2021/05/20 12:32:39;;;;;;;;;;;;;;;21.48;38.40;100993.81;5072916;28;19925;-65
2021/05/20 12:35:09;;;;;;;;;;;;;;;21.77;39.92;100998.50;5053053;28;20020;-65
2021/05/20 12:37:45;;;;;;;;;;;;;;;21.17;40.50;101003.13;5053591;28;19971;-66